Time;durP1;ratioP1;P1;durP2;ratioP2;P2;SDS_P1;SDS_P2;PMS_P1;PMS_P2;Temp;Humidity;BMP_temperature;BMP_pressure;BME280_temperature;BME280_humidity;BME280_pressure;Samples;Min_cycle;Max_cycle;Signal;HPM_P1;HPM_P2
2022/12/25 00:01:19;;;;;;;13.13;9.52;;;8.80;99.90;;;;;;5032893;28;20041;-82
2022/12/25 00:03:45;;;;;;;12.07;9.70;;;8.80;99.90;;;;;;5032442;28;20175;-82
2022/12/25 00:06:10;;;;;;;13.13;9.45;;;8.80;99.90;;;;;;5032574;28;20104;-82
2022/12/25 00:08:37;;;;;;;13.50;8.40;;;8.60;99.90;;;;;;5033001;28;20040;-82
2022/12/25 00:11:06;;;;;;;10.90;8.18;;;8.70;99.90;;;;;;5032704;28;20025;-82
2022/12/25 00:13:32;;;;;;;9.52;8.35;;;8.80;99.90;;;;;;5032283;28;20127;-82
2022/12/25 00:15:57;;;;;;;10.45;8.65;;;8.80;99.90;;;;;;5032463;28;20100;-83
2022/12/25 00:18:23;;;;;;;10.93;8.80;;;8.90;99.90;;;;;;5033671;28;20049;-82
2022/12/25 00:21:00;;;;;;;14.68;9.52;;;9.10;99.90;;;;;;5032339;28;20025;-82
2022/12/25 00:23:26;;;;;;;13.82;9.65;;;9.20;99.90;;;;;;5032123;28;20104;-82
2022/12/25 00:25:52;;;;;;;12.82;10.32;;;8.80;99.90;;;;;;5032250;28;20117;-82
2022/12/25 00:28:19;;;;;;;12.45;9.57;;;8.90;99.90;;;;;;5032129;28;20024;-82
2022/12/25 00:30:44;;;;;;;12.00;9.48;;;8.90;99.90;;;;;;5032222;28;20639;-83
2022/12/25 00:33:10;;;;;;;14.25;9.35;;;8.60;99.90;;;;;;5032074;28;20029;-82
2022/12/25 00:35:36;;;;;;;14.75;10.05;;;8.70;99.90;;;;;;5031599;28;20084;-82
2022/12/25 00:38:01;;;;;;;11.70;9.07;;;8.80;99.90;;;;;;5032248;28;20036;-82
2022/12/25 00:40:27;;;;;;;11.82;8.98;;;8.80;99.90;;;;;;5032026;28;20065;-82
2022/12/25 00:42:53;;;;;;;11.05;8.65;;;8.90;99.90;;;;;;5032312;28;20363;-82
2022/12/25 00:45:18;;;;;;;11.98;9.75;;;9.00;99.90;;;;;;5032222;28;20025;-82
2022/12/25 00:47:44;;;;;;;14.02;10.23;;;9.10;99.90;;;;;;5032148;28;20079;-82
2022/12/25 00:50:10;;;;;;;11.63;9.50;;;8.80;99.90;;;;;;5032156;28;20711;-82
2022/12/25 00:52:36;;;;;;;11.65;10.13;;;8.80;99.90;;;;;;5031870;28;20067;-82
2022/12/25 00:55:02;;;;;;;11.77;8.95;;;8.90;99.90;;;;;;5031571;28;20030;-82
2022/12/25 00:57:27;;;;;;;12.05;8.55;;;8.90;99.90;;;;;;5031752;28;20426;-83
2022/12/25 00:59:53;;;;;;;11.02;8.32;;;9.00;99.90;;;;;;5031295;28;20125;-82
2022/12/25 01:02:22;;;;;;;9.65;8.63;;;9.00;99.90;;;;;;5032126;28;20024;-82
2022/12/25 01:04:49;;;;;;;10.40;9.02;;;9.00;99.90;;;;;;5032194;28;20390;-83
2022/12/25 01:07:17;;;;;;;10.65;9.55;;;9.10;99.90;;;;;;5032031;28;20031;-82
2022/12/25 01:12:29;;;;;;;10.27;8.43;;;9.10;99.90;;;;;;5031722;28;20032;-82
2022/12/25 01:14:55;;;;;;;11.93;8.63;;;9.00;99.90;;;;;;5031722;28;20025;-82
2022/12/25 01:17:21;;;;;;;13.55;8.63;;;9.00;99.90;;;;;;5013976;28;20478;-82
2022/12/25 01:19:46;;;;;;;14.50;8.70;;;9.00;99.90;;;;;;5031698;28;20040;-82
2022/12/25 01:22:12;;;;;;;9.95;8.23;;;9.00;99.90;;;;;;5031870;28;20064;-82
2022/12/25 01:24:38;;;;;;;11.82;8.80;;;9.00;99.90;;;;;;5031841;28;20143;-82
2022/12/25 01:27:04;;;;;;;12.38;8.82;;;9.00;99.90;;;;;;5031535;28;20033;-83
2022/12/25 01:29:29;;;;;;;12.48;8.85;;;9.00;99.90;;;;;;5031820;28;20022;-82
2022/12/25 01:31:55;;;;;;;11.45;8.55;;;9.00;99.90;;;;;;5032024;28;20039;-82
2022/12/25 01:34:20;;;;;;;13.05;8.60;;;9.00;99.90;;;;;;5031529;28;20033;-82
2022/12/25 01:36:46;;;;;;;10.35;8.80;;;9.00;99.90;;;;;;5031770;28;20027;-83
2022/12/25 01:39:11;;;;;;;13.52;8.70;;;9.00;99.90;;;;;;5032110;28;20025;-82
2022/12/25 01:41:37;;;;;;;10.52;8.68;;;9.00;99.90;;;;;;5031368;28;20103;-82
2022/12/25 01:44:15;;;;;;;12.50;8.77;;;8.80;99.90;;;;;;5031522;28;20110;-82
2022/12/25 01:46:44;;;;;;;11.07;7.80;;;8.80;99.90;;;;;;5033301;28;20034;-82
2022/12/25 01:49:12;;;;;;;15.98;10.00;;;8.80;99.90;;;;;;5035430;28;20022;-82
2022/12/25 01:51:43;;;;;;;13.77;9.05;;;8.80;99.90;;;;;;5035292;28;20057;-82
2022/12/25 01:54:15;;;;;;;13.32;8.32;;;8.80;99.90;;;;;;5034815;28;20040;-82
2022/12/25 01:56:43;;;;;;;12.88;8.23;;;8.70;99.90;;;;;;5035145;28;20022;-82
2022/12/25 01:59:11;;;;;;;8.95;6.63;;;8.70;99.90;;;;;;5035304;28;20028;-82
2022/12/25 02:01:37;;;;;;;6.93;6.13;;;8.50;99.90;;;;;;5035076;28;20061;-82
2022/12/25 02:04:13;;;;;;;15.55;10.38;;;8.30;99.90;;;;;;5035051;28;20057;-82
2022/12/25 02:06:39;;;;;;;9.55;7.63;;;8.30;99.90;;;;;;5035043;28;20039;-82
2022/12/25 02:09:05;;;;;;;15.48;12.48;;;8.40;99.90;;;;;;5016731;28;20108;-83
2022/12/25 02:14:15;;;;;;;10.68;7.38;;;8.20;99.90;;;;;;5034815;28;20132;-82
2022/12/25 02:16:45;;;;;;;9.95;7.55;;;8.10;99.90;;;;;;5034805;28;20489;-82
2022/12/25 02:19:45;;;;;;;10.27;7.03;;;8.10;99.90;;;;;;5034547;28;20056;-82
2022/12/25 02:22:38;;;;;;;9.82;7.25;;;8.10;99.90;;;;;;5034563;28;20040;-82
2022/12/25 02:25:31;;;;;;;10.30;6.97;;;8.00;99.90;;;;;;4953794;28;20184;-83
2022/12/25 02:28:08;;;;;;;10.90;7.10;;;7.80;99.90;;;;;;4954231;28;20130;-82
2022/12/25 02:30:43;;;;;;;9.98;7.20;;;7.90;99.90;;;;;;4954215;28;20507;-82
2022/12/25 02:36:14;;;;;;;10.50;7.00;;;8.00;99.90;;;;;;4954329;28;20047;-82
2022/12/25 02:39:56;;;;;;;8.90;7.43;;;8.00;99.90;;;;;;4953872;29;20559;-82
2022/12/25 02:41:33;;;;;;;9.77;7.43;;;8.00;99.90;;;;;;4953808;28;20043;-82
2022/12/25 03:06:42;;;;;;;11.45;7.90;;;8.00;99.90;;;;;;5034149;28;20076;-82
2022/12/25 03:12:16;;;;;;;10.07;7.85;;;8.10;99.90;;;;;;5033778;28;20032;-82
2022/12/25 03:17:29;;;;;;;9.88;7.18;;;8.00;99.90;;;;;;5034180;28;20529;-82
2022/12/25 03:28:12;;;;;;;9.85;7.38;;;8.30;99.90;;;;;;5034098;28;20534;-81
2022/12/25 03:31:13;;;;;;;9.40;7.90;;;8.30;99.90;;;;;;5015837;28;20543;-82
2022/12/25 03:46:50;;;;;;;12.40;7.35;;;8.40;99.90;;;;;;5033142;28;20396;-81
2022/12/25 04:38:11;;;;;;;13.10;8.38;;;8.20;99.90;;;;;;4952216;28;20039;-81
2022/12/25 04:40:37;;;;;;;12.73;8.85;;;8.20;99.90;;;;;;4951996;28;20039;-82
2022/12/25 04:43:03;;;;;;;12.23;8.60;;;8.20;99.90;;;;;;4951905;29;20043;-82
2022/12/25 04:45:28;;;;;;;12.20;8.82;;;8.20;99.90;;;;;;4951894;29;20027;-82
2022/12/25 04:47:54;;;;;;;11.45;8.85;;;8.10;99.90;;;;;;4952404;28;20046;-82
2022/12/25 04:50:20;;;;;;;10.85;8.10;;;8.10;99.90;;;;;;4951665;28;20027;-82
2022/12/25 04:52:45;;;;;;;10.73;8.13;;;8.10;99.90;;;;;;4957626;28;20042;-82
2022/12/25 04:55:11;;;;;;;12.80;8.75;;;8.10;99.90;;;;;;4971125;28;20047;-82
2022/12/25 04:57:38;;;;;;;10.77;8.63;;;8.20;99.90;;;;;;4971239;28;20395;-82
2022/12/25 05:00:05;;;;;;;12.85;8.98;;;8.20;99.90;;;;;;4971239;28;20554;-82
2022/12/25 05:02:31;;;;;;;12.60;8.90;;;8.20;99.90;;;;;;5032110;28;20108;-82
2022/12/25 05:04:57;;;;;;;10.77;7.93;;;8.10;99.90;;;;;;5031579;28;20113;-82
2022/12/25 05:07:22;;;;;;;13.10;8.70;;;8.20;99.90;;;;;;5031938;28;20075;-82
2022/12/25 05:09:48;;;;;;;12.13;8.40;;;8.10;99.90;;;;;;5031975;28;20791;-82
2022/12/25 05:12:14;;;;;;;16.08;8.43;;;8.10;99.90;;;;;;5032272;28;20029;-82
2022/12/25 05:14:40;;;;;;;11.98;7.78;;;8.00;99.90;;;;;;5031858;28;20033;-82
2022/12/25 05:17:06;;;;;;;11.07;7.70;;;8.00;99.90;;;;;;5031594;28;20033;-81
2022/12/25 05:19:32;;;;;;;9.93;7.53;;;7.70;99.90;;;;;;5031950;28;20457;-82
2022/12/25 05:21:58;;;;;;;14.27;9.57;;;7.40;99.90;;;;;;5034461;28;20057;-82
2022/12/25 05:24:27;;;;;;;11.75;8.77;;;7.50;99.90;;;;;;5035855;28;20025;-82
2022/12/25 05:26:53;;;;;;;12.23;9.15;;;7.40;99.90;;;;;;5035721;28;20052;-82
2022/12/25 05:29:19;;;;;;;12.40;8.98;;;7.70;99.90;;;;;;5017899;28;20048;-82
2022/12/25 05:31:44;;;;;;;12.38;9.38;;;7.70;99.90;;;;;;5035592;28;20533;-83
2022/12/25 05:34:10;;;;;;;13.35;9.30;;;7.70;99.90;;;;;;5035682;28;20032;-82
2022/12/25 05:36:37;;;;;;;12.95;9.45;;;7.90;99.90;;;;;;5035380;28;20121;-82
2022/12/25 05:39:03;;;;;;;12.63;8.88;;;7.90;99.90;;;;;;5035615;28;20018;-82
2022/12/25 05:41:28;;;;;;;11.43;8.75;;;8.00;99.90;;;;;;5035708;28;20091;-82
2022/12/25 05:43:54;;;;;;;12.30;8.95;;;8.10;99.90;;;;;;5035703;28;20057;-83
2022/12/25 05:46:19;;;;;;;10.50;8.32;;;8.10;99.90;;;;;;5035140;28;20037;-82
2022/12/25 05:48:45;;;;;;;12.70;7.72;;;8.10;99.90;;;;;;5035294;28;20026;-82
2022/12/25 05:51:12;;;;;;;12.65;8.30;;;8.10;99.90;;;;;;5035232;28;20033;-82
2022/12/25 05:53:39;;;;;;;10.52;7.93;;;8.20;99.90;;;;;;5035259;28;20047;-82
2022/12/25 05:56:06;;;;;;;13.07;8.52;;;8.10;99.90;;;;;;5035560;28;20040;-82
2022/12/25 05:58:34;;;;;;;11.05;8.48;;;8.20;99.90;;;;;;5035045;28;20021;-82
2022/12/25 06:01:00;;;;;;;14.10;8.57;;;8.20;99.90;;;;;;5034499;28;20164;-82
2022/12/25 06:03:26;;;;;;;10.48;8.05;;;8.30;99.90;;;;;;5035136;28;20060;-82
2022/12/25 06:05:52;;;;;;;12.10;7.70;;;8.30;99.90;;;;;;5035223;28;20100;-82
2022/12/25 06:08:18;;;;;;;11.40;7.40;;;8.30;99.90;;;;;;5035073;28;20422;-82
2022/12/25 06:10:44;;;;;;;10.75;7.65;;;8.30;99.90;;;;;;5034902;28;20037;-81
2022/12/25 06:13:09;;;;;;;7.90;7.05;;;8.30;99.90;;;;;;5035165;28;20021;-82
2022/12/25 06:15:40;;;;;;;8.73;6.68;;;8.20;99.90;;;;;;5034511;28;20029;-82
2022/12/25 06:18:06;;;;;;;11.95;6.50;;;8.30;99.90;;;;;;5035074;28;20053;-82
2022/12/25 06:20:32;;;;;;;6.60;4.93;;;8.30;99.90;;;;;;5034634;28;20037;-83
2022/12/25 06:23:00;;;;;;;7.88;5.75;;;8.40;99.90;;;;;;5034631;28;20053;-82
2022/12/25 06:25:25;;;;;;;7.75;5.80;;;8.50;99.90;;;;;;5034604;28;20036;-82
2022/12/25 06:27:51;;;;;;;8.20;5.68;;;8.50;99.90;;;;;;5034909;28;20033;-82
2022/12/25 06:30:16;;;;;;;7.88;5.57;;;8.50;99.90;;;;;;5034353;28;20017;-82
2022/12/25 06:32:42;;;;;;;7.47;5.82;;;8.50;99.90;;;;;;5033531;28;20080;-82
2022/12/25 06:35:08;;;;;;;8.63;6.10;;;8.50;99.90;;;;;;5034126;28;20454;-82
2022/12/25 06:37:33;;;;;;;9.23;5.63;;;8.40;99.90;;;;;;5034918;28;20048;-82
2022/12/25 06:39:59;;;;;;;7.22;5.85;;;8.40;99.90;;;;;;5034275;28;20406;-82
2022/12/25 06:42:25;;;;;;;8.43;6.25;;;8.50;99.90;;;;;;5034421;28;20045;-83
2022/12/25 06:44:52;;;;;;;8.80;6.13;;;8.50;99.90;;;;;;5034082;28;20037;-82
2022/12/25 06:47:17;;;;;;;8.98;6.50;;;8.60;99.90;;;;;;5034527;28;20429;-81
2022/12/25 06:49:43;;;;;;;8.93;6.97;;;8.50;99.90;;;;;;5034089;28;20033;-82
2022/12/25 06:52:08;;;;;;;9.10;6.72;;;8.50;99.90;;;;;;5034169;28;20057;-82
2022/12/25 06:54:34;;;;;;;11.35;6.47;;;8.40;99.90;;;;;;5034075;28;20029;-82
2022/12/25 06:57:00;;;;;;;10.15;6.40;;;8.40;99.90;;;;;;5034038;28;20418;-82
2022/12/25 06:59:25;;;;;;;7.03;5.88;;;8.40;99.90;;;;;;5033547;28;20164;-81
2022/12/25 07:01:53;;;;;;;8.35;6.15;;;8.30;99.90;;;;;;5033933;28;20090;-82
2022/12/25 07:04:36;;;;;;;8.20;6.03;;;8.30;99.90;;;;;;5034004;28;20538;-82
2022/12/25 07:07:03;;;;;;;7.93;5.47;;;8.30;99.90;;;;;;5034221;28;20064;-82
2022/12/25 07:09:29;;;;;;;8.05;5.63;;;8.30;99.90;;;;;;5033857;28;20025;-82
2022/12/25 07:12:13;;;;;;;6.82;5.30;;;8.50;99.90;;;;;;5033795;28;20044;-82
2022/12/25 07:14:39;;;;;;;8.77;5.28;;;8.50;99.90;;;;;;5033408;28;20482;-82
2022/12/25 07:17:05;;;;;;;7.47;5.15;;;8.60;99.90;;;;;;5033411;28;20024;-82
2022/12/25 07:19:31;;;;;;;8.57;5.50;;;8.60;99.90;;;;;;5033704;28;20186;-82
2022/12/25 07:21:56;;;;;;;7.53;5.78;;;8.60;99.90;;;;;;5033515;28;20121;-82
2022/12/25 07:24:23;;;;;;;6.82;5.60;;;8.70;99.90;;;;;;5033691;28;20022;-82
2022/12/25 07:26:50;;;;;;;8.32;5.35;;;8.70;99.90;;;;;;5033826;28;20508;-82
2022/12/25 07:29:18;;;;;;;6.63;4.65;;;8.80;99.90;;;;;;5033058;28;20025;-82
2022/12/25 07:31:44;;;;;;;7.15;5.10;;;8.90;99.90;;;;;;5033270;28;20397;-80
2022/12/25 07:34:10;;;;;;;8.00;5.10;;;9.00;99.90;;;;;;5033360;28;20021;-82
2022/12/25 07:36:35;;;;;;;7.20;4.88;;;9.30;99.90;;;;;;5033609;28;20406;-82
2022/12/25 07:39:01;;;;;;;6.43;4.70;;;10.60;99.90;;;;;;5033234;28;20025;-82
2022/12/25 07:41:27;;;;;;;6.10;4.55;;;11.10;99.90;;;;;;5033323;28;20512;-82
2022/12/25 07:43:53;;;;;;;6.25;4.25;;;11.20;99.90;;;;;;5032687;28;20049;-82
2022/12/25 07:46:20;;;;;;;4.47;3.88;;;11.00;99.90;;;;;;5032969;28;20065;-83
2022/12/25 07:48:46;;;;;;;5.32;4.18;;;11.20;99.90;;;;;;5033023;28;20036;-82
2022/12/25 07:51:13;;;;;;;8.10;4.38;;;11.50;99.90;;;;;;5033331;28;20402;-82
2022/12/25 07:53:40;;;;;;;6.68;4.63;;;11.50;99.90;;;;;;5032964;28;20516;-82
2022/12/25 07:56:17;;;;;;;5.57;3.97;;;12.40;99.90;;;;;;5032937;28;20091;-82
2022/12/25 07:58:43;;;;;;;4.60;3.78;;;14.00;99.90;;;;;;5032539;28;20025;-82
2022/12/25 08:01:12;;;;;;;4.35;3.70;;;13.80;99.90;;;;;;5032615;28;20044;-82
2022/12/25 08:03:38;;;;;;;6.18;4.32;;;13.50;99.90;;;;;;5032863;28;20096;-82
2022/12/25 08:06:06;;;;;;;4.88;3.92;;;13.70;99.90;;;;;;5032780;28;20116;-83
2022/12/25 08:08:33;;;;;;;4.25;3.50;;;14.60;99.90;;;;;;5033099;28;20021;-82
2022/12/25 08:10:58;;;;;;;4.07;3.67;;;15.50;99.90;;;;;;5032708;28;20036;-83
2022/12/25 08:13:24;;;;;;;4.68;3.38;;;15.40;99.90;;;;;;5032421;28;20033;-83
2022/12/25 08:15:55;;;;;;;4.70;3.90;;;14.40;99.90;;;;;;5032947;28;20505;-82
2022/12/25 08:18:21;;;;;;;4.65;4.00;;;13.60;99.90;;;;;;5032481;28;20045;-82
2022/12/25 08:20:46;;;;;;;4.40;4.00;;;12.70;99.90;;;;;;5032429;28;20044;-83
2022/12/25 08:23:12;;;;;;;5.88;3.80;;;12.70;99.90;;;;;;5032436;28;20025;-83
2022/12/25 08:25:37;;;;;;;4.25;3.38;;;14.20;99.90;;;;;;5032499;28;20029;-82
2022/12/25 08:28:03;;;;;;;5.43;3.88;;;15.00;99.90;;;;;;5032212;28;20121;-82
2022/12/25 08:30:29;;;;;;;4.38;3.75;;;14.80;99.90;;;;;;5032218;28;20029;-83
2022/12/25 08:32:55;;;;;;;6.65;4.07;;;15.40;99.90;;;;;;5032749;28;20030;-82
2022/12/25 08:35:21;;;;;;;5.22;3.97;;;16.10;99.90;;;;;;5014456;28;20102;-83
2022/12/25 08:37:46;;;;;;;6.63;4.07;;;15.90;99.90;;;;;;5032210;28;20021;-82
2022/12/25 08:40:12;;;;;;;4.63;3.92;;;14.40;99.90;;;;;;5031862;28;20083;-82
2022/12/25 08:42:38;;;;;;;5.18;3.72;;;13.70;99.90;;;;;;5031693;28;20589;-81
2022/12/25 08:45:04;;;;;;;4.40;3.65;;;13.60;99.90;;;;;;5025539;28;20104;-82
2022/12/25 08:47:30;;;;;;;6.05;4.10;;;13.60;99.90;;;;;;5020269;28;20041;-81
2022/12/25 08:49:56;;;;;;;5.18;3.40;;;13.70;99.90;;;;;;5026018;28;20037;-81
2022/12/25 08:52:21;;;;;;;4.60;4.18;;;13.80;99.90;;;;;;5025440;28;20049;-82
2022/12/25 08:54:47;;;;;;;4.68;3.55;;;14.00;99.90;;;;;;5014616;28;20538;-81
2022/12/25 08:57:13;;;;;;;6.25;3.22;;;14.30;99.90;;;;;;5011748;28;20022;-81
2022/12/25 08:59:39;;;;;;;5.13;3.45;;;14.40;99.90;;;;;;5012225;28;20057;-83
2022/12/25 09:02:05;;;;;;;6.10;3.40;;;14.30;99.90;;;;;;5012287;28;20494;-83
2022/12/25 09:04:31;;;;;;;4.03;3.22;;;14.90;99.90;;;;;;4994652;28;20442;-81
2022/12/25 09:06:57;;;;;;;3.72;2.90;;;15.20;99.90;;;;;;5011877;28;20108;-83
2022/12/25 09:09:27;;;;;;;5.22;3.63;;;16.10;99.90;;;;;;5011881;28;20410;-83
2022/12/25 09:11:53;;;;;;;5.47;3.63;;;17.00;99.90;;;;;;5011928;28;20544;-83
2022/12/25 09:14:19;;;;;;;3.22;2.80;;;17.40;99.90;;;;;;5011336;28;20030;-83
2022/12/25 09:16:49;;;;;;;3.28;2.95;;;17.90;99.90;;;;;;5012108;28;20037;-83
2022/12/25 09:19:15;;;;;;;3.58;3.05;;;17.20;99.90;;;;;;5011244;28;20173;-83
2022/12/25 09:21:42;;;;;;;5.03;3.20;;;16.60;99.90;;;;;;5012590;28;20120;-82
2022/12/25 09:24:08;;;;;;;3.30;2.60;;;16.90;99.90;;;;;;5010957;28;20105;-83
2022/12/25 09:26:33;;;;;;;4.40;2.90;;;16.90;99.90;;;;;;5011224;28;20105;-83
2022/12/25 09:28:59;;;;;;;5.85;2.90;;;17.10;99.90;;;;;;5011704;28;20080;-83
2022/12/25 09:31:25;;;;;;;3.80;2.50;;;18.50;99.90;;;;;;5011811;28;20021;-83
2022/12/25 09:33:54;;;;;;;4.93;2.75;;;20.20;99.90;;;;;;5019136;28;20502;-83
2022/12/25 09:36:22;;;;;;;3.88;2.60;;;20.00;99.90;;;;;;5031629;28;20033;-83
2022/12/25 09:38:47;;;;;;;3.25;2.60;;;20.70;99.90;;;;;;5031247;28;20485;-83
2022/12/25 09:41:35;;;;;;;3.42;2.65;;;21.40;99.90;;;;;;5031578;28;20033;-83
2022/12/25 09:44:09;;;;;;;4.05;2.25;;;20.10;99.90;;;;;;5031291;28;20021;-83
2022/12/25 09:46:41;;;;;;;3.90;2.20;;;20.00;99.90;;;;;;5031483;28;20030;-83
2022/12/25 09:49:18;;;;;;;3.40;2.40;;;19.20;99.90;;;;;;5029542;28;20057;-82
2022/12/25 09:51:47;;;;;;;2.55;2.00;;;18.10;99.90;;;;;;5029933;28;20117;-83
2022/12/25 09:54:26;;;;;;;2.90;2.50;;;17.90;99.90;;;;;;5030820;28;20131;-84
2022/12/25 09:56:52;;;;;;;2.95;2.65;;;18.10;99.90;;;;;;5028803;28;20018;-82
2022/12/25 09:59:23;;;;;;;3.90;2.78;;;17.50;99.90;;;;;;5033210;28;20120;-83
2022/12/25 10:02:40;;;;;;;2.88;2.05;;;17.70;99.90;;;;;;5028577;28;20116;-82
2022/12/25 10:05:37;;;;;;;3.75;2.20;;;17.70;99.90;;;;;;4949442;29;20122;-82
2022/12/25 10:08:33;;;;;;;2.20;1.90;;;18.30;99.90;;;;;;4932084;29;20036;-82
2022/12/25 10:11:43;;;;;;;3.95;2.25;;;19.80;99.90;;;;;;4935140;29;20110;-82
2022/12/25 10:14:22;;;;;;;3.20;1.80;;;21.20;99.90;;;;;;4932506;29;20044;-84
2022/12/25 10:17:11;;;;;;;2.55;2.15;;;21.90;99.90;;;;;;4935019;29;20050;-84
2022/12/25 10:20:05;;;;;;;3.47;1.50;;;20.50;99.90;;;;;;4939311;29;20566;-83
2022/12/25 10:22:37;;;;;;;3.83;2.55;;;21.30;99.90;;;;;;4953998;28;20043;-83
2022/12/25 10:25:05;;;;;;;3.00;2.25;;;21.30;99.90;;;;;;4953978;29;20047;-83
2022/12/25 10:27:41;;;;;;;3.47;2.10;;;20.80;99.90;;;;;;4954054;28;20467;-83
2022/12/25 10:30:17;;;;;;;3.67;2.20;;;19.80;99.90;;;;;;4954059;29;20476;-84
2022/12/25 10:32:44;;;;;;;4.22;2.22;;;19.20;99.90;;;;;;4954098;29;20023;-85
2022/12/25 10:35:15;;;;;;;6.88;2.35;;;20.40;99.90;;;;;;4954069;28;20043;-84
2022/12/25 10:37:43;;;;;;;3.33;2.50;;;19.50;99.90;;;;;;4953699;28;20034;-85
2022/12/25 10:40:35;;;;;;;3.03;2.00;;;19.60;99.90;;;;;;4985965;28;20029;-84
2022/12/25 10:43:20;;;;;;;2.28;2.08;;;19.00;99.90;;;;;;5034041;28;20033;-84
2022/12/25 10:45:47;;;;;;;3.17;2.60;;;19.10;99.90;;;;;;5033998;28;20026;-85
2022/12/25 10:48:20;;;;;;;2.75;2.28;;;20.70;99.90;;;;;;5034319;28;20367;-84
2022/12/25 10:50:46;;;;;;;2.75;1.40;;;19.70;99.90;;;;;;5033702;28;20025;-84
2022/12/25 10:53:39;;;;;;;3.05;2.00;;;18.30;99.90;;;;;;5033740;28;20029;-84
2022/12/25 10:56:14;;;;;;;4.75;2.95;;;18.90;99.90;;;;;;5030477;28;20064;-85
2022/12/25 10:58:40;;;;;;;2.03;1.80;;;18.90;99.90;;;;;;5033782;28;20091;-85
2022/12/25 11:01:07;;;;;;;3.58;2.45;;;18.70;99.90;;;;;;5033933;28;20037;-85
2022/12/25 11:03:35;;;;;;;2.97;2.33;;;18.30;99.90;;;;;;5034053;28;20087;-84
2022/12/25 11:06:01;;;;;;;3.35;3.05;;;18.80;99.90;;;;;;5034077;28;20034;-85
2022/12/25 11:08:30;;;;;;;3.05;2.50;;;19.90;99.90;;;;;;5033597;28;20037;-84
2022/12/25 11:11:04;;;;;;;5.80;2.30;;;19.50;99.90;;;;;;5032711;28;20035;-85
2022/12/25 11:13:34;;;;;;;2.72;2.25;;;19.70;99.90;;;;;;5032962;28;20017;-84
2022/12/25 11:16:04;;;;;;;3.45;2.13;;;18.20;99.90;;;;;;5033305;28;20083;-85
2022/12/25 11:18:51;;;;;;;2.45;2.15;;;17.40;99.90;;;;;;5032946;28;20048;-85
2022/12/25 11:21:26;;;;;;;3.70;2.13;;;17.50;99.90;;;;;;5033096;28;20041;-84
2022/12/25 11:24:16;;;;;;;2.83;2.40;;;17.10;99.90;;;;;;5033586;28;20101;-85
2022/12/25 11:26:53;;;;;;;2.95;2.22;;;17.60;99.90;;;;;;5033482;28;20485;-85
2022/12/25 11:29:43;;;;;;;4.07;2.40;;;17.50;99.90;;;;;;5033558;28;20037;-85
2022/12/25 11:32:28;;;;;;;5.93;2.42;;;17.30;99.90;;;;;;5033765;28;20014;-84
2022/12/25 11:34:55;;;;;;;4.70;2.83;;;18.10;99.90;;;;;;5032767;28;20480;-85
2022/12/25 11:37:26;;;;;;;4.32;2.42;;;18.50;99.90;;;;;;5033386;28;20025;-84
2022/12/25 11:39:52;;;;;;;3.20;2.35;;;19.10;99.90;;;;;;5032963;28;20028;-84
2022/12/25 11:42:36;;;;;;;2.60;2.40;;;18.50;99.90;;;;;;5034222;28;20044;-85
2022/12/25 11:45:22;;;;;;;5.13;2.70;;;18.70;99.90;;;;;;5033113;28;20029;-85
2022/12/25 11:47:55;;;;;;;3.47;2.80;;;18.70;99.90;;;;;;5033126;28;20057;-85
2022/12/25 11:50:41;;;;;;;3.88;2.20;;;17.60;99.90;;;;;;5032819;28;20021;-85
2022/12/25 11:53:17;;;;;;;2.58;2.38;;;17.60;99.90;;;;;;5033150;28;20049;-85
2022/12/25 11:55:53;;;;;;;2.70;1.92;;;17.80;99.90;;;;;;5032972;28;20029;-85
2022/12/25 11:58:31;;;;;;;3.17;2.47;;;17.80;99.90;;;;;;5032928;28;20362;-85
2022/12/25 12:01:01;;;;;;;3.33;2.55;;;17.90;99.90;;;;;;5032925;28;20041;-85
2022/12/25 12:03:39;;;;;;;3.47;2.67;;;18.70;99.90;;;;;;5032567;28;20113;-85
2022/12/25 12:06:22;;;;;;;4.15;2.90;;;19.40;99.90;;;;;;5033061;28;20034;-83
2022/12/25 12:08:52;;;;;;;4.35;2.72;;;19.90;99.90;;;;;;5032633;28;20021;-83
2022/12/25 12:11:24;;;;;;;2.20;2.00;;;21.30;99.90;;;;;;5032667;28;20083;-83
2022/12/25 12:14:24;;;;;;;3.17;2.20;;;19.90;99.90;;;;;;5032478;28;20075;-83
2022/12/25 12:16:50;;;;;;;3.40;2.17;;;19.50;99.90;;;;;;5011281;28;20051;-83
2022/12/25 12:19:29;;;;;;;2.72;2.10;;;19.70;99.90;;;;;;5032324;28;20124;-83
2022/12/25 12:21:58;;;;;;;2.60;2.08;;;19.20;99.90;;;;;;5032405;28;20091;-83
2022/12/25 12:24:29;;;;;;;3.13;2.25;;;19.20;99.90;;;;;;5032434;28;20061;-83
2022/12/25 12:27:21;;;;;;;2.85;2.17;;;19.20;99.90;;;;;;5032560;28;20496;-83
2022/12/25 12:29:53;;;;;;;2.90;2.60;;;19.20;99.90;;;;;;5032410;28;20397;-83
2022/12/25 12:32:43;;;;;;;2.75;2.20;;;19.10;99.90;;;;;;5031836;28;20021;-83
2022/12/25 12:35:22;;;;;;;3.10;2.08;;;18.80;99.90;;;;;;5018003;28;20060;-82
2022/12/25 12:38:16;;;;;;;5.90;2.63;;;19.50;99.90;;;;;;5031976;28;20084;-83
2022/12/25 12:41:00;;;;;;;2.65;1.83;;;19.60;99.90;;;;;;5032208;28;20049;-83
2022/12/25 12:43:37;;;;;;;2.42;2.22;;;19.70;99.90;;;;;;5032200;28;20499;-83
2022/12/25 12:46:15;;;;;;;2.28;2.08;;;19.90;99.90;;;;;;5032181;28;20091;-83
2022/12/25 12:48:44;;;;;;;2.85;2.28;;;18.60;99.90;;;;;;5031549;28;20132;-83
2022/12/25 12:51:30;;;;;;;3.72;2.47;;;18.60;99.90;;;;;;5031671;28;20061;-83
2022/12/25 12:54:19;;;;;;;2.60;2.30;;;18.20;99.90;;;;;;5031836;28;20508;-83
2022/12/25 12:56:56;;;;;;;3.53;2.45;;;19.10;99.90;;;;;;5031944;28;20035;-83
2022/12/25 12:59:24;;;;;;;3.03;2.53;;;19.90;99.90;;;;;;5032470;28;20060;-83
2022/12/25 13:02:04;;;;;;;2.83;2.38;;;20.30;99.90;;;;;;5031457;28;20033;-83
2022/12/25 13:04:54;;;;;;;2.72;2.47;;;19.60;99.90;;;;;;5031918;28;20033;-83
2022/12/25 13:07:44;;;;;;;2.95;2.60;;;19.60;99.90;;;;;;5032319;28;20037;-83
2022/12/25 13:10:22;;;;;;;4.25;2.50;;;19.50;99.90;;;;;;5032431;28;20504;-83
2022/12/25 13:12:59;;;;;;;3.03;2.42;;;19.80;99.90;;;;;;5031804;28;20033;-83
2022/12/25 13:15:28;;;;;;;3.15;2.50;;;19.90;99.90;;;;;;5031864;28;20056;-83
2022/12/25 13:18:00;;;;;;;3.63;2.40;;;19.70;99.90;;;;;;5031412;28;20045;-83
2022/12/25 13:20:53;;;;;;;3.25;2.95;;;19.50;99.90;;;;;;5032066;28;20534;-83
2022/12/25 13:23:29;;;;;;;3.85;2.90;;;19.70;99.90;;;;;;5031773;28;20037;-83
2022/12/25 13:25:58;;;;;;;4.22;2.80;;;19.60;99.90;;;;;;5031687;28;20030;-83
2022/12/25 13:28:29;;;;;;;3.05;2.60;;;19.30;99.90;;;;;;5031709;28;20026;-83
2022/12/25 13:31:22;;;;;;;4.53;2.95;;;19.40;99.90;;;;;;5031362;28;20053;-83
2022/12/25 13:33:58;;;;;;;4.60;2.92;;;19.40;99.90;;;;;;5027651;28;20060;-83
2022/12/25 13:36:25;;;;;;;4.28;2.65;;;19.40;99.90;;;;;;5032147;28;20026;-83
2022/12/25 13:38:55;;;;;;;3.25;2.80;;;18.70;99.90;;;;;;5032342;28;20025;-83
2022/12/25 13:44:24;;;;;;;3.17;2.65;;;19.10;99.90;;;;;;5036022;28;20390;-83
2022/12/25 13:46:50;;;;;;;4.15;2.80;;;19.10;99.90;;;;;;5035503;28;20032;-83
2022/12/25 13:49:19;;;;;;;3.28;2.90;;;19.90;99.90;;;;;;5035300;28;20030;-83
2022/12/25 13:51:45;;;;;;;3.92;2.70;;;19.90;99.90;;;;;;5035307;28;20022;-83
2022/12/25 13:54:13;;;;;;;4.03;2.90;;;20.10;99.90;;;;;;5035086;28;20039;-83
2022/12/25 13:56:50;;;;;;;4.03;2.85;;;20.00;99.90;;;;;;5035475;28;20104;-83
2022/12/25 13:59:20;;;;;;;4.07;3.10;;;19.00;99.90;;;;;;5035050;28;20075;-83
2022/12/25 14:01:46;;;;;;;3.95;2.67;;;18.80;99.90;;;;;;5034862;28;20091;-83
2022/12/25 14:04:15;;;;;;;4.75;2.90;;;19.50;99.90;;;;;;5034967;28;20490;-83
2022/12/25 14:06:41;;;;;;;3.85;3.22;;;19.00;99.90;;;;;;5035083;28;20025;-83
2022/12/25 14:09:09;;;;;;;4.25;2.75;;;18.60;99.90;;;;;;5034958;28;20101;-83
2022/12/25 14:11:36;;;;;;;3.40;2.72;;;19.50;99.90;;;;;;5034912;28;20068;-83
2022/12/25 14:14:06;;;;;;;3.90;2.78;;;18.40;99.90;;;;;;5034405;28;20026;-83
2022/12/25 14:16:33;;;;;;;3.75;2.95;;;18.60;99.90;;;;;;5034955;28;20025;-83
2022/12/25 14:19:00;;;;;;;4.28;2.63;;;18.70;99.90;;;;;;5034495;28;20111;-83
2022/12/25 14:21:37;;;;;;;3.47;2.50;;;18.70;99.90;;;;;;5034770;28;20038;-83
2022/12/25 14:24:11;;;;;;;4.28;3.72;;;18.80;99.90;;;;;;5034574;28;20025;-83
2022/12/25 14:26:36;;;;;;;3.72;3.03;;;17.90;99.90;;;;;;5034597;28;20033;-83
2022/12/25 14:29:06;;;;;;;4.97;3.33;;;18.10;99.90;;;;;;5034447;28;20516;-83
2022/12/25 14:31:33;;;;;;;3.20;2.90;;;17.70;99.90;;;;;;5034916;28;20079;-83
2022/12/25 14:34:04;;;;;;;3.78;3.15;;;17.50;99.90;;;;;;5034234;28;20079;-83
2022/12/25 14:36:31;;;;;;;3.97;3.10;;;17.60;99.90;;;;;;5034491;28;20032;-83
2022/12/25 14:39:06;;;;;;;4.07;3.20;;;17.50;99.90;;;;;;5034344;28;20079;-83
2022/12/25 14:41:41;;;;;;;4.75;3.47;;;17.30;99.90;;;;;;5034779;28;20029;-83
2022/12/25 14:44:31;;;;;;;4.50;3.42;;;17.30;99.90;;;;;;5033979;28;20056;-83
2022/12/25 14:47:16;;;;;;;3.90;2.67;;;17.50;99.90;;;;;;5034130;28;20071;-83
2022/12/25 14:49:42;;;;;;;5.07;2.97;;;18.20;99.90;;;;;;5034731;28;20390;-82
2022/12/25 14:52:25;;;;;;;3.25;2.67;;;18.70;99.90;;;;;;5034324;28;20551;-83
2022/12/25 14:55:00;;;;;;;7.53;3.45;;;18.90;99.90;;;;;;5033618;28;20406;-83
2022/12/25 14:57:30;;;;;;;3.00;2.70;;;19.20;99.90;;;;;;5033779;28;20489;-83